Time;durP1;ratioP1;P1;durP2;ratioP2;P2;SDS_P1;SDS_P2;PMS_P1;PMS_P2;Temp;Humidity;BMP_temperature;BMP_pressure;BME280_temperature;BME280_humidity;BME280_pressure;Samples;Min_cycle;Max_cycle;Signal;HPM_P1;HPM_P2
2021/11/18 00:01:20;;;;;;;5.78;4.97;;;7.50;78.40;;;6.68;64.14;95653.59;4939403;29;20282;-88
2021/11/18 00:03:47;;;;;;;6.45;4.65;;;7.50;79.20;;;6.70;64.38;95656.06;4940320;29;20293;-89
2021/11/18 00:06:16;;;;;;;5.70;4.53;;;7.50;78.40;;;6.73;64.26;95658.38;4924406;29;20226;-89
2021/11/18 00:08:44;;;;;;;6.22;4.60;;;7.50;78.40;;;6.73;64.31;95658.38;4958761;28;20222;-89
2021/11/18 00:11:15;;;;;;;5.78;4.63;;;7.50;78.40;;;6.72;64.04;95656.72;4943398;28;20206;-89
2021/11/18 00:13:50;;;;;;;6.35;4.75;;;7.50;78.40;;;6.77;64.15;95667.53;4943514;28;20899;-89
2021/11/18 00:16:17;;;;;;;5.55;4.30;;;7.50;78.40;;;6.78;64.27;95668.34;4943455;28;20194;-88
2021/11/18 00:18:45;;;;;;;6.47;4.72;;;7.50;78.40;;;6.78;64.07;95668.34;4943287;28;20222;-89
2021/11/18 00:21:22;;;;;;;6.35;4.95;;;7.60;78.40;;;6.81;64.33;95665.44;4940744;28;20231;-88
2021/11/18 00:23:56;;;;;;;6.18;4.65;;;7.60;78.40;;;6.82;64.22;95667.09;4943645;28;20210;-89
2021/11/18 00:26:26;;;;;;;5.90;4.55;;;7.60;78.30;;;6.83;64.14;95671.34;4930602;29;20750;-89
2021/11/18 00:28:53;;;;;;;5.55;4.30;;;7.60;78.30;;;6.85;64.16;95666.78;4924215;29;20219;-89
2021/11/18 00:31:26;;;;;;;5.50;4.15;;;7.60;78.30;;;6.80;64.26;95667.25;4938472;28;20207;-89
2021/11/18 00:33:54;;;;;;;5.30;4.10;;;7.60;78.40;;;6.86;63.94;95671.00;4924162;29;20274;-89
2021/11/18 00:36:21;;;;;;;4.60;4.20;;;7.60;78.30;;;6.87;64.07;95676.09;4939841;29;20204;-89
2021/11/18 00:38:49;;;;;;;4.43;3.60;;;7.60;78.30;;;6.87;64.20;95681.31;4944124;28;20223;-89
2021/11/18 00:41:17;;;;;;;4.78;4.07;;;7.60;78.30;;;6.90;64.22;95685.41;4943003;28;20238;-89
2021/11/18 00:43:48;;;;;;;4.60;4.05;;;7.60;78.30;;;6.90;64.48;95688.03;4943246;28;20226;-89
2021/11/18 00:46:20;;;;;;;5.65;4.28;;;7.60;78.40;;;6.87;64.20;95685.69;4943722;28;20205;-89
2021/11/18 00:48:47;;;;;;;5.35;4.25;;;7.70;78.40;;;6.85;64.17;95687.66;4926829;28;20699;-88
2021/11/18 00:51:18;;;;;;;4.47;4.05;;;7.60;78.30;;;6.86;64.23;95690.09;4942662;28;20249;-88
2021/11/18 00:53:52;;;;;;;4.93;4.10;;;7.60;78.30;;;6.88;64.39;95700.38;4942815;28;20222;-89
2021/11/18 00:56:23;;;;;;;4.97;4.15;;;7.60;78.30;;;6.87;64.40;95691.75;4943129;28;20179;-89
2021/11/18 00:58:55;;;;;;;5.07;4.00;;;7.60;78.30;;;6.87;64.09;95696.97;4942904;28;20254;-89
2021/11/18 01:01:32;;;;;;;4.35;3.60;;;7.70;78.40;;;6.89;64.26;95695.00;4942569;28;20207;-88
2021/11/18 01:04:03;;;;;;;5.00;4.03;;;7.60;78.30;;;6.88;64.69;95693.41;4958600;28;20743;-88
2021/11/18 01:06:30;;;;;;;5.07;4.13;;;7.60;79.10;;;6.87;64.65;95696.13;4926808;28;20581;-88
2021/11/18 01:08:57;;;;;;;5.70;4.03;;;7.70;78.40;;;6.85;64.10;95698.88;4941700;28;20242;-89
2021/11/18 01:11:29;;;;;;;5.40;4.05;;;7.60;78.30;;;6.89;64.40;95704.63;4942166;28;20207;-89
2021/11/18 01:14:00;;;;;;;4.35;3.60;;;7.60;78.30;;;6.87;64.21;95703.94;4942696;28;20216;-89
2021/11/18 01:16:33;;;;;;;5.93;4.50;;;7.60;78.30;;;6.88;64.31;95709.03;4942769;28;20683;-89
2021/11/18 01:19:03;;;;;;;5.93;4.40;;;7.60;78.30;;;6.85;64.26;95704.09;4941929;28;20229;-89
2021/11/18 01:21:34;;;;;;;5.00;4.10;;;7.60;78.30;;;6.86;64.27;95710.13;4942754;28;20206;-89
2021/11/18 01:24:04;;;;;;;5.85;4.50;;;7.60;78.30;;;6.84;64.34;95710.28;4941940;28;20632;-88
2021/11/18 01:26:48;;;;;;;4.53;3.63;;;7.60;78.30;;;6.86;64.45;95713.56;4944041;28;20297;-88
2021/11/18 01:29:15;;;;;;;5.05;3.97;;;7.60;78.30;;;6.85;64.24;95719.75;4941474;28;20681;-88
2021/11/18 01:31:43;;;;;;;4.85;3.80;;;7.60;78.30;;;6.82;64.20;95717.47;4936794;28;20313;-88
2021/11/18 01:34:11;;;;;;;4.72;4.00;;;7.60;78.30;;;6.79;64.43;95709.13;4934327;28;20230;-89
2021/11/18 01:36:41;;;;;;;4.55;3.72;;;7.60;78.40;;;6.83;64.35;95718.25;4946352;28;20191;-87
2021/11/18 01:39:11;;;;;;;5.95;4.05;;;7.60;78.40;;;6.83;64.47;95715.66;4940971;28;20219;-88
2021/11/18 01:41:42;;;;;;;7.93;4.35;;;7.60;78.40;;;6.78;64.29;95707.47;4944457;28;20198;-88
2021/11/18 01:44:31;;;;;;;5.15;4.00;;;7.60;78.40;;;6.83;64.43;95713.06;4942011;28;20253;-89
2021/11/18 01:47:08;;;;;;;5.47;4.20;;;7.60;78.40;;;6.81;64.49;95718.41;4948733;28;20209;-87
2021/11/18 01:49:35;;;;;;;5.55;4.40;;;7.60;78.40;;;6.81;64.32;95714.97;4946929;28;20227;-88
2021/11/18 01:52:06;;;;;;;4.82;4.03;;;7.60;78.40;;;6.81;64.34;95714.97;4962423;28;20218;-87
2021/11/18 01:54:36;;;;;;;5.60;4.20;;;7.60;78.40;;;6.82;64.37;95724.44;4948154;28;20285;-88
2021/11/18 01:57:09;;;;;;;6.15;4.22;;;7.60;78.50;;;6.79;64.50;95727.38;4956332;28;20227;-88
2021/11/18 01:59:43;;;;;;;4.82;3.85;;;7.60;78.50;;;6.79;64.67;95722.16;4935969;28;20221;-88
2021/11/18 02:02:29;;;;;;;6.28;4.55;;;7.60;78.50;;;6.70;64.66;95727.28;4945109;28;20317;-88
2021/11/18 02:05:28;;;;;;;4.88;3.90;;;7.60;78.50;;;6.70;64.40;95729.88;4942033;28;20301;-88
2021/11/18 02:08:00;;;;;;;4.93;3.83;;;7.60;78.50;;;6.73;64.63;95729.56;4952745;28;20282;-89
2021/11/18 02:10:38;;;;;;;4.30;3.70;;;7.60;78.50;;;6.72;64.17;95738.34;4931880;28;20202;-88
2021/11/18 02:13:09;;;;;;;5.05;4.00;;;7.60;78.60;;;6.72;64.82;95732.34;4955900;28;20219;-87
2021/11/18 02:15:48;;;;;;;4.43;3.75;;;7.50;78.50;;;6.72;64.78;95724.50;4940689;28;20202;-88
2021/11/18 02:18:23;;;;;;;4.30;3.65;;;7.50;78.60;;;6.72;64.53;95738.34;4939673;28;20274;-88
2021/11/18 02:20:58;;;;;;;4.28;3.60;;;7.50;78.70;;;6.72;64.71;95734.94;4956778;28;20206;-87
2021/11/18 02:23:30;;;;;;;4.68;3.83;;;7.50;78.70;;;6.68;64.54;95726.59;4924508;28;20218;-88
2021/11/18 02:25:59;;;;;;;6.43;4.47;;;7.50;78.70;;;6.69;64.94;95727.44;4940825;28;20195;-88
2021/11/18 02:28:33;;;;;;;6.22;4.82;;;7.50;78.70;;;6.72;65.11;95735.75;4940734;28;20215;-87
2021/11/18 02:31:16;;;;;;;5.13;4.13;;;7.50;78.80;;;6.73;64.73;95740.00;4938044;28;20198;-88
2021/11/18 02:33:44;;;;;;;6.22;5.07;;;7.60;78.80;;;6.70;65.04;95731.66;4950985;28;20227;-87
2021/11/18 02:36:14;;;;;;;6.55;4.60;;;7.50;78.80;;;6.71;65.11;95739.34;4933290;28;20195;-88
2021/11/18 02:38:42;;;;;;;6.30;4.30;;;7.50;78.80;;;6.70;64.79;95735.09;4936533;28;20223;-88
2021/11/18 02:41:17;;;;;;;6.43;4.40;;;7.50;78.90;;;6.68;64.84;95739.63;4942050;28;20187;-88
2021/11/18 02:43:45;;;;;;;5.07;4.25;;;7.50;78.90;;;6.74;64.93;95746.06;4960117;28;20257;-87
2021/11/18 02:46:15;;;;;;;5.68;4.57;;;7.50;78.80;;;6.74;65.36;95748.66;4941386;28;20190;-88
2021/11/18 02:48:43;;;;;;;5.30;4.72;;;7.50;78.80;;;6.75;64.98;95755.50;4944356;28;20693;-87
2021/11/18 02:51:19;;;;;;;6.35;5.18;;;7.60;78.90;;;6.77;65.23;95752.75;4945458;28;20282;-88
2021/11/18 02:53:48;;;;;;;6.07;4.45;;;7.50;78.90;;;6.78;64.93;95751.78;4959850;28;20724;-88
2021/11/18 02:56:16;;;;;;;6.35;4.70;;;7.50;78.90;;;6.80;64.96;95755.88;4960146;28;20697;-88
2021/11/18 02:58:48;;;;;;;7.53;4.97;;;7.50;78.90;;;6.78;65.20;95752.59;4929085;28;20222;-88
2021/11/18 03:01:22;;;;;;;6.55;5.00;;;7.60;79.10;;;6.79;65.15;95756.03;4947692;28;20192;-88
2021/11/18 03:03:53;;;;;;;8.25;5.53;;;7.50;78.90;;;6.77;64.94;95758.78;4929506;28;20246;-88
2021/11/18 03:06:20;;;;;;;6.88;5.22;;;7.60;79.00;;;6.77;65.33;95755.38;4944060;28;20585;-88
2021/11/18 03:08:48;;;;;;;6.55;5.15;;;7.60;79.00;;;6.82;65.29;95761.78;4944106;28;20226;-88
2021/11/18 03:11:22;;;;;;;6.95;5.45;;;7.60;79.00;;;6.81;65.17;95757.53;4943785;28;20210;-88
2021/11/18 03:13:51;;;;;;;8.70;5.20;;;7.60;79.00;;;6.77;65.46;95758.78;4958168;28;20712;-88
2021/11/18 03:16:21;;;;;;;6.72;5.35;;;7.60;79.00;;;6.76;65.21;95754.53;4928976;28;20594;-88
2021/11/18 03:18:49;;;;;;;6.45;4.90;;;7.60;79.00;;;6.76;65.21;95758.94;4943944;28;20218;-87
2021/11/18 03:21:23;;;;;;;7.65;5.45;;;7.60;79.00;;;6.82;64.86;95766.16;4942777;28;20195;-87
2021/11/18 03:23:55;;;;;;;7.43;5.50;;;7.60;79.10;;;6.79;65.26;95762.06;4944619;28;20269;-87
2021/11/18 03:26:29;;;;;;;7.22;5.22;;;7.60;79.90;;;6.81;65.22;95759.31;4943058;28;20213;-87
2021/11/18 03:29:05;;;;;;;8.27;6.00;;;7.60;79.00;;;6.78;64.96;95763.03;4944890;28;20215;-86
2021/11/18 03:31:34;;;;;;;7.75;5.53;;;7.60;79.10;;;6.77;65.26;95773.63;4943014;28;20201;-87
2021/11/18 03:34:10;;;;;;;7.40;5.30;;;7.60;79.00;;;6.79;64.97;95779.50;4943017;28;20230;-87
2021/11/18 03:36:40;;;;;;;7.95;5.55;;;7.50;79.10;;;6.78;65.24;95770.03;4942288;28;20301;-87
2021/11/18 03:39:11;;;;;;;6.35;5.03;;;7.70;79.20;;;6.79;65.22;95779.50;4942335;28;20672;-88
2021/11/18 03:41:48;;;;;;;5.93;5.10;;;7.60;79.10;;;6.79;64.97;95780.31;4941379;28;20195;-87
2021/11/18 03:44:19;;;;;;;6.78;5.30;;;7.50;79.10;;;6.73;65.34;95767.88;4937416;29;20227;-87
2021/11/18 03:47:03;;;;;;;7.40;5.40;;;7.50;79.00;;;6.76;64.97;95780.59;4944857;28;20198;-87
2021/11/18 03:49:35;;;;;;;7.88;5.57;;;7.50;79.10;;;6.75;65.17;95776.38;4925563;28;20289;-87
2021/11/18 03:52:08;;;;;;;7.88;5.90;;;7.50;79.00;;;6.74;65.25;95777.34;4937157;29;20251;-87
2021/11/18 03:54:39;;;;;;;6.97;5.53;;;7.50;79.10;;;6.70;65.35;95769.00;4937250;29;20216;-86
2021/11/18 03:57:08;;;;;;;7.82;5.35;;;7.50;79.10;;;6.73;65.24;95770.47;4937678;29;20204;-86
2021/11/18 03:59:46;;;;;;;7.63;5.57;;;7.50;79.10;;;6.69;65.40;95766.53;4939875;29;20290;-87
2021/11/18 04:02:19;;;;;;;8.43;6.30;;;7.60;79.20;;;6.71;65.47;95775.84;4938483;29;20195;-86
2021/11/18 04:04:53;;;;;;;9.55;5.63;;;7.60;79.20;;;6.70;65.54;95773.38;4938978;29;20232;-86
2021/11/18 04:07:20;;;;;;;7.22;5.53;;;7.50;79.20;;;6.69;65.55;95782.97;4938795;29;20211;-86
2021/11/18 04:09:53;;;;;;;7.70;5.72;;;7.50;79.20;;;6.69;65.43;95777.78;4960313;28;20225;-87
2021/11/18 04:12:21;;;;;;;7.07;5.00;;;7.50;79.20;;;6.68;65.89;95778.72;4942842;28;20273;-87
2021/11/18 04:14:48;;;;;;;7.05;5.63;;;7.50;79.20;;;6.70;65.51;95775.97;4959665;28;20702;-86
2021/11/18 04:17:16;;;;;;;7.60;5.28;;;7.60;79.30;;;6.66;65.78;95785.88;4943422;28;20653;-86
2021/11/18 04:19:44;;;;;;;8.15;6.18;;;7.50;79.30;;;6.69;65.70;95782.97;4958999;28;20269;-86
2021/11/18 04:22:12;;;;;;;6.97;5.18;;;7.50;79.30;;;6.70;65.43;95786.41;4943754;28;20206;-86
2021/11/18 04:24:45;;;;;;;8.00;5.68;;;7.50;79.40;;;6.69;65.70;95793.41;4943623;28;20222;-87
2021/11/18 04:27:15;;;;;;;9.73;6.25;;;7.50;79.40;;;6.68;65.60;95799.59;4943581;28;20203;-86
2021/11/18 04:29:42;;;;;;;8.20;6.13;;;7.50;79.40;;;6.63;65.54;95787.94;4927253;28;20225;-86
2021/11/18 04:32:19;;;;;;;8.82;5.88;;;7.50;79.40;;;6.65;65.68;95792.06;4942116;28;20633;-87
2021/11/18 04:34:53;;;;;;;7.55;5.57;;;7.50;79.40;;;6.67;65.84;95799.75;4928779;28;20214;-86
2021/11/18 04:37:22;;;;;;;7.60;5.63;;;7.50;79.40;;;6.65;65.89;95788.63;4943276;28;20231;-87
2021/11/18 04:39:50;;;;;;;6.65;5.28;;;7.50;79.50;;;6.67;65.73;95800.53;4927180;28;20242;-87
2021/11/18 04:42:19;;;;;;;8.10;5.75;;;7.50;80.30;;;6.69;65.82;95803.03;4939573;29;20204;-87
2021/11/18 04:44:58;;;;;;;6.47;5.40;;;7.50;80.20;;;6.69;65.62;95798.63;4941136;29;20627;-87
2021/11/18 04:47:25;;;;;;;8.23;5.88;;;7.50;79.50;;;6.71;65.76;95811.50;4957349;28;20207;-86
2021/11/18 04:49:53;;;;;;;8.32;5.90;;;7.50;79.50;;;6.69;65.38;95810.84;4958399;28;20238;-86
2021/11/18 04:52:22;;;;;;;7.70;5.95;;;7.50;79.50;;;6.67;65.91;95808.38;4957131;28;20206;-87
2021/11/18 04:54:50;;;;;;;9.48;6.50;;;7.50;79.50;;;6.66;65.84;95811.13;4941266;28;20243;-86
2021/11/18 04:57:18;;;;;;;8.43;6.28;;;7.50;79.50;;;6.69;65.96;95811.66;4956651;28;20203;-86
2021/11/18 04:59:46;;;;;;;7.90;5.80;;;7.50;79.50;;;6.68;65.86;95804.81;4940013;28;20230;-86
2021/11/18 05:02:13;;;;;;;7.32;5.68;;;7.50;79.50;;;6.67;65.74;95810.97;4954681;28;20209;-86
2021/11/18 05:04:42;;;;;;;7.07;5.65;;;7.50;79.50;;;6.69;65.67;95813.47;4940839;28;20232;-86
2021/11/18 05:07:09;;;;;;;7.53;6.20;;;7.50;79.50;;;6.67;65.94;95813.59;4957061;28;20253;-86
2021/11/18 05:09:36;;;;;;;8.13;6.15;;;7.50;79.50;;;6.65;66.01;95817.31;4952740;28;20215;-86
2021/11/18 05:12:04;;;;;;;7.65;5.72;;;7.50;79.50;;;6.68;65.65;95830.88;4938773;29;20290;-86
2021/11/18 05:14:32;;;;;;;7.35;5.78;;;7.50;79.60;;;6.64;65.81;95824.31;4938715;29;20231;-86
2021/11/18 05:16:59;;;;;;;6.65;5.53;;;7.50;79.60;;;6.69;65.92;95832.50;4938507;29;20230;-86
2021/11/18 05:19:27;;;;;;;7.72;5.75;;;7.50;79.60;;;6.68;65.81;95838.69;4957867;28;20704;-85
2021/11/18 05:21:55;;;;;;;8.35;6.25;;;7.50;79.60;;;6.68;65.93;95830.06;4941902;28;20230;-85
2021/11/18 05:24:24;;;;;;;7.38;5.90;;;7.60;79.60;;;6.65;66.07;95827.72;4941773;28;20341;-86
2021/11/18 05:26:55;;;;;;;7.50;5.53;;;7.50;79.60;;;6.69;65.88;95831.72;4942457;28;20650;-86
2021/11/18 05:29:22;;;;;;;8.93;6.38;;;7.50;79.60;;;6.70;65.88;95828.94;4939246;28;20227;-86
2021/11/18 05:31:50;;;;;;;7.00;5.55;;;7.50;79.60;;;6.71;65.95;95829.75;4941652;28;20199;-85
2021/11/18 05:34:40;;;;;;;6.95;5.40;;;7.50;79.60;;;6.70;65.52;95835.94;4947281;28;20230;-85
2021/11/18 05:37:12;;;;;;;8.05;5.88;;;7.50;79.60;;;6.68;65.92;95836.09;4938009;29;20572;-86
2021/11/18 05:39:39;;;;;;;7.68;5.90;;;7.50;79.60;;;6.70;66.12;95836.78;4938491;29;20692;-86
2021/11/18 05:42:07;;;;;;;8.35;5.80;;;7.50;79.60;;;6.70;65.69;95836.78;4954496;29;20215;-86
2021/11/18 05:44:34;;;;;;;7.50;5.72;;;7.50;79.60;;;6.71;65.69;95843.63;4955874;28;20223;-86
2021/11/18 05:47:02;;;;;;;7.15;5.57;;;7.50;79.70;;;6.71;65.70;95840.19;4941932;28;20199;-85
2021/11/18 05:49:29;;;;;;;9.00;6.00;;;7.50;79.70;;;6.73;65.86;95846.88;4956540;28;20321;-85
2021/11/18 05:51:59;;;;;;;7.63;6.05;;;7.50;79.70;;;6.73;65.83;95843.47;4940732;28;20229;-86
2021/11/18 05:54:27;;;;;;;8.27;5.97;;;7.60;79.80;;;6.73;65.61;95857.31;4942202;28;20242;-85
2021/11/18 05:56:54;;;;;;;7.72;5.85;;;7.50;79.70;;;6.75;65.92;95861.56;4945783;28;20242;-85
2021/11/18 05:59:22;;;;;;;8.07;6.07;;;7.50;79.60;;;6.75;65.66;95866.78;4936842;28;20711;-85
2021/11/18 06:01:53;;;;;;;8.43;6.28;;;7.50;79.70;;;6.73;65.69;95859.13;4945239;28;20198;-85
2021/11/18 06:04:21;;;;;;;6.82;5.40;;;7.50;79.70;;;6.76;65.63;95864.03;4930530;28;20660;-84
2021/11/18 06:06:57;;;;;;;7.90;5.40;;;7.50;79.70;;;6.75;65.79;95857.19;4933460;28;20568;-86
2021/11/18 06:09:26;;;;;;;8.05;6.25;;;7.50;79.60;;;6.70;65.87;95856.78;4942213;28;20238;-86
2021/11/18 06:11:53;;;;;;;9.13;6.60;;;7.50;79.70;;;6.76;65.78;95874.47;4950594;28;20197;-85
2021/11/18 06:14:22;;;;;;;8.27;6.30;;;7.50;79.60;;;6.76;65.74;95871.84;4941414;28;20249;-86
2021/11/18 06:16:52;;;;;;;8.40;6.28;;;7.50;79.60;;;6.73;65.89;95869.56;4934716;28;20293;-86
2021/11/18 06:19:21;;;;;;;8.10;6.05;;;7.50;79.60;;;6.76;65.66;95881.47;4925095;28;20760;-86
2021/11/18 06:21:53;;;;;;;8.25;5.68;;;7.50;79.60;;;6.78;66.04;95884.78;4925092;28;20253;-84
2021/11/18 06:24:25;;;;;;;7.82;6.00;;;7.60;79.70;;;6.77;65.60;95885.72;4941576;28;20610;-86
2021/11/18 06:26:56;;;;;;;8.20;6.35;;;7.50;79.70;;;6.79;65.65;95891.63;4930997;28;20202;-86
2021/11/18 06:29:30;;;;;;;8.60;6.28;;;7.50;79.70;;;6.78;65.76;95898.63;4942081;28;20230;-87
2021/11/18 06:32:03;;;;;;;8.02;5.78;;;7.50;79.60;;;6.73;65.71;95900.84;4940998;28;20198;-87
2021/11/18 06:34:32;;;;;;;8.98;6.53;;;7.50;80.40;;;6.73;65.92;95904.25;4923078;29;20235;-86
2021/11/18 06:36:59;;;;;;;9.98;6.65;;;7.50;79.60;;;6.76;65.86;95912.75;4922040;29;20195;-86
2021/11/18 06:39:35;;;;;;;8.02;5.93;;;7.50;79.60;;;6.76;65.86;95917.97;4937040;28;20246;-86
2021/11/18 06:42:07;;;;;;;8.27;6.20;;;7.50;79.60;;;6.79;65.93;95922.91;4935344;28;20223;-86
2021/11/18 06:44:38;;;;;;;10.15;6.60;;;7.50;79.60;;;6.78;65.85;95916.88;4931904;28;20234;-86
2021/11/18 06:47:07;;;;;;;8.82;6.53;;;7.50;79.70;;;6.77;65.97;95917.81;4935422;28;20673;-85
2021/11/18 06:49:37;;;;;;;8.50;6.38;;;7.50;79.60;;;6.79;65.95;95915.91;4940807;28;20241;-84
2021/11/18 06:52:08;;;;;;;8.70;6.68;;;7.50;79.70;;;6.78;65.88;95921.28;4956847;28;20627;-85
2021/11/18 06:54:36;;;;;;;8.32;5.97;;;7.60;79.70;;;6.78;66.16;95922.06;4941221;28;20281;-84
2021/11/18 06:57:05;;;;;;;8.95;6.10;;;7.60;79.70;;;6.79;66.12;95909.88;4941162;28;20255;-86
2021/11/18 06:59:33;;;;;;;8.45;6.15;;;7.60;79.70;;;6.82;65.92;95918.25;4972941;28;20767;-84
2021/11/18 07:02:00;;;;;;;7.28;5.45;;;7.60;79.70;;;6.83;65.67;95919.84;4942245;28;20285;-84
2021/11/18 07:04:29;;;;;;;8.15;5.68;;;7.60;79.70;;;6.84;65.97;95918.09;4954046;28;20695;-86
2021/11/18 07:06:56;;;;;;;7.15;5.50;;;7.60;79.70;;;6.81;65.68;95911.38;4930545;29;20234;-86
2021/11/18 07:09:24;;;;;;;8.48;6.57;;;7.60;79.70;;;6.87;65.97;95925.59;4921919;29;20238;-86
2021/11/18 07:12:19;;;;;;;9.20;6.13;;;7.60;79.70;;;6.90;65.82;95933.16;4943320;28;20203;-85
2021/11/18 07:14:49;;;;;;;8.48;6.20;;;7.60;79.70;;;6.90;65.83;95920.13;4934617;28;20251;-87
2021/11/18 07:17:17;;;;;;;7.15;5.55;;;7.60;79.70;;;6.91;65.94;95920.94;4937607;28;20638;-86
2021/11/18 07:19:46;;;;;;;7.38;5.68;;;7.60;79.80;;;6.95;65.89;95927.53;4931693;28;20218;-87
2021/11/18 07:22:16;;;;;;;8.13;6.13;;;7.70;79.90;;;6.97;65.91;95918.59;4931170;28;20191;-86
2021/11/18 07:25:10;;;;;;;9.20;6.00;;;7.70;79.90;;;6.98;66.03;95919.38;4952217;28;20313;-86
2021/11/18 07:27:40;;;;;;;8.13;6.10;;;7.70;79.90;;;7.02;65.96;95918.97;4950869;28;20297;-83
2021/11/18 07:30:08;;;;;;;8.50;6.32;;;7.70;79.80;;;7.00;65.61;95918.28;4941444;28;20249;-87
2021/11/18 07:32:38;;;;;;;7.65;6.03;;;7.70;79.80;;;7.07;65.94;95922.91;4938209;28;20206;-86
2021/11/18 07:35:14;;;;;;;7.13;5.53;;;7.90;80.00;;;7.12;65.70;95925.94;4940468;28;20654;-87
2021/11/18 07:37:41;;;;;;;8.73;5.75;;;7.70;79.90;;;7.15;65.88;95925.63;4968237;28;20207;-86
2021/11/18 07:40:13;;;;;;;8.00;6.07;;;7.80;79.90;;;7.16;65.92;95922.88;4941419;28;20535;-87
2021/11/18 07:42:44;;;;;;;10.60;6.88;;;7.80;79.90;;;7.22;65.70;95924.88;4958210;28;20646;-86
2021/11/18 07:45:38;;;;;;;9.27;6.55;;;7.80;80.00;;;7.26;66.26;95916.78;4949123;28;20222;-86
2021/11/18 07:48:22;;;;;;;9.95;6.90;;;7.90;80.00;;;7.36;65.83;95930.59;4959024;28;20207;-86
2021/11/18 07:50:52;;;;;;;8.38;6.88;;;7.90;80.10;;;7.46;65.96;95941.81;4958319;28;20261;-86
2021/11/18 07:53:25;;;;;;;8.73;6.53;;;8.00;80.20;;;7.56;66.00;95946.16;4924440;28;20318;-86
2021/11/18 07:55:53;;;;;;;7.90;6.18;;;8.00;80.30;;;7.64;65.90;95944.44;4939983;29;20196;-86
2021/11/18 07:58:21;;;;;;;9.50;7.28;;;8.10;80.40;;;7.69;65.64;95941.41;4943443;28;20231;-85
2021/11/18 08:00:51;;;;;;;10.75;6.40;;;8.20;80.30;;;7.77;65.80;95943.25;4947477;28;20293;-85
2021/11/18 08:03:33;;;;;;;9.55;7.10;;;8.20;80.40;;;7.85;65.75;95951.19;4948601;28;20219;-86
2021/11/18 08:06:19;;;;;;;9.75;7.32;;;8.40;80.30;;;7.87;65.38;95957.06;4941995;28;20334;-87
2021/11/18 08:08:51;;;;;;;9.57;7.35;;;8.40;80.10;;;7.92;65.20;95962.66;4943280;28;20217;-86
2021/11/18 08:11:29;;;;;;;10.20;7.50;;;8.40;80.00;;;7.90;65.05;95950.69;4942150;28;20576;-87
2021/11/18 08:13:59;;;;;;;9.80;7.10;;;8.50;79.80;;;7.96;65.28;95955.34;4956818;28;20222;-86
2021/11/18 08:16:27;;;;;;;9.15;6.75;;;8.50;79.80;;;7.96;64.98;95953.56;4942999;28;20199;-87
2021/11/18 08:19:01;;;;;;;9.43;6.80;;;8.60;79.70;;;8.01;65.10;95963.56;4939946;28;20309;-86
2021/11/18 08:21:28;;;;;;;10.38;6.82;;;8.60;79.80;;;8.05;64.97;95962.28;4939864;28;20210;-86
2021/11/18 08:23:58;;;;;;;9.45;6.63;;;8.60;79.70;;;8.09;65.10;95966.25;4943189;28;20211;-86
2021/11/18 08:26:31;;;;;;;9.20;6.70;;;8.60;79.70;;;8.05;64.77;95961.47;4941362;28;20210;-87
2021/11/18 08:29:07;;;;;;;8.10;6.47;;;8.70;79.60;;;8.15;64.93;95977.88;4943836;28;20220;-86
2021/11/18 08:31:38;;;;;;;10.13;6.70;;;8.70;79.60;;;8.21;64.66;95981.69;4943199;28;20254;-86
2021/11/18 08:34:24;;;;;;;8.40;6.18;;;8.70;79.80;;;8.25;64.76;95968.19;4948474;28;20321;-87
2021/11/18 08:36:56;;;;;;;6.60;5.25;;;8.80;79.90;;;8.41;65.00;95971.88;4940135;29;20227;-87
2021/11/18 08:39:26;;;;;;;11.57;8.77;;;8.90;80.00;;;8.45;64.97;95974.03;4939701;29;20694;-87
2021/11/18 08:41:58;;;;;;;8.57;6.63;;;8.90;79.90;;;8.58;64.93;95980.69;4940064;29;20227;-87
2021/11/18 08:44:31;;;;;;;7.82;5.70;;;9.00;79.80;;;8.58;64.37;95991.16;4955757;29;20659;-87
2021/11/18 08:47:00;;;;;;;7.57;5.65;;;9.10;79.50;;;8.55;63.91;95994.09;4955599;29;20206;-88
2021/11/18 08:49:31;;;;;;;6.47;5.18;;;9.10;79.40;;;8.49;63.94;95987.66;4955577;29;20526;-88
2021/11/18 08:52:06;;;;;;;6.05;5.18;;;9.10;79.10;;;8.40;64.04;95973.69;4923717;29;20596;-88
2021/11/18 08:54:42;;;;;;;6.55;5.07;;;9.10;78.90;;;8.38;63.84;95995.72;4940452;29;20756;-87
2021/11/18 08:57:11;;;;;;;7.38;5.50;;;9.10;78.70;;;8.34;63.74;95996.00;4955178;29;20217;-88
2021/11/18 09:00:16;;;;;;;6.72;5.10;;;9.10;78.60;;;8.32;63.98;95992.75;4943021;29;20230;-85
2021/11/18 09:03:02;;;;;;;5.43;4.70;;;9.10;78.80;;;8.29;64.27;95987.81;4928917;29;20199;-86
2021/11/18 09:05:31;;;;;;;6.32;5.00;;;9.00;78.70;;;8.32;64.13;95991.91;4942688;28;20206;-87
2021/11/18 09:08:00;;;;;;;6.63;5.18;;;9.00;78.80;;;8.30;64.14;95991.22;4942598;28;20214;-87
2021/11/18 09:10:31;;;;;;;6.10;4.90;;;9.00;78.70;;;8.33;64.15;95994.38;4942401;28;20195;-86
2021/11/18 09:12:59;;;;;;;6.85;5.15;;;9.00;78.70;;;8.28;63.92;95996.63;4957928;28;20293;-87
2021/11/18 09:15:28;;;;;;;7.57;5.38;;;9.00;78.70;;;8.31;64.09;95998.94;4957601;28;20601;-85
2021/11/18 09:17:58;;;;;;;6.03;4.68;;;9.00;78.70;;;8.33;64.49;95999.59;4941766;28;20206;-86
2021/11/18 09:20:53;;;;;;;8.20;5.60;;;9.00;78.80;;;8.26;63.99;95995.94;4942427;29;20218;-86
2021/11/18 09:23:25;;;;;;;7.20;5.43;;;9.00;78.70;;;8.27;63.99;96007.22;4974064;28;20560;-87
2021/11/18 09:25:53;;;;;;;6.85;5.07;;;9.00;78.60;;;8.26;64.28;96009.00;4943731;28;20645;-85
2021/11/18 09:28:23;;;;;;;6.53;4.70;;;9.00;78.70;;;8.25;64.17;96017.84;4953521;28;20198;-86
2021/11/18 09:31:21;;;;;;;6.72;4.90;;;8.90;78.60;;;8.23;64.39;96014.53;4945175;28;20293;-87
2021/11/18 09:33:50;;;;;;;6.97;5.05;;;8.90;78.60;;;8.22;64.18;96025.16;4941955;28;20226;-87
2021/11/18 09:36:22;;;;;;;6.90;5.13;;;8.90;78.60;;;8.20;64.12;96027.91;4941885;28;20206;-86
2021/11/18 09:38:52;;;;;;;7.10;5.43;;;8.90;78.70;;;8.17;64.07;96023.78;4941920;28;20222;-86
2021/11/18 09:41:28;;;;;;;9.20;6.40;;;8.90;78.70;;;8.14;64.13;96023.28;4941437;28;20733;-86
2021/11/18 09:44:32;;;;;;;9.57;6.45;;;8.90;78.60;;;8.09;64.09;96026.34;4952436;28;20233;-87
2021/11/18 09:47:27;;;;;;;6.80;5.57;;;8.90;78.60;;;8.10;64.51;96027.16;4971975;28;20580;-87
2021/11/18 09:50:18;;;;;;;8.27;6.38;;;8.80;78.60;;;8.08;64.38;96019.47;4959941;28;20222;-87
2021/11/18 09:53:42;;;;;;;9.00;6.50;;;8.80;78.70;;;8.07;64.22;96025.66;4950786;28;20197;-88
2021/11/18 09:56:40;;;;;;;8.95;6.15;;;8.80;78.60;;;8.05;64.23;96024.19;4954489;28;20203;-87
2021/11/18 09:59:35;;;;;;;9.40;6.72;;;8.80;78.50;;;8.04;64.19;96019.91;4957239;28;20309;-88
2021/11/18 10:03:00;;;;;;;8.82;6.03;;;8.80;78.50;;;7.99;64.34;96008.09;4955638;28;20594;-87
2021/11/18 10:05:45;;;;;;;9.18;6.55;;;8.80;78.60;;;7.95;64.29;96003.34;4947775;29;20214;-88
2021/11/18 10:08:19;;;;;;;9.40;6.45;;;8.70;78.50;;;7.94;64.18;96006.94;4924829;28;20183;-88
2021/11/18 10:11:28;;;;;;;9.73;6.50;;;8.80;78.60;;;7.94;64.12;96009.53;4943048;28;20209;-87
2021/11/18 10:14:53;;;;;;;8.93;6.35;;;8.70;78.60;;;7.95;64.20;96004.16;4957727;28;20294;-88
2021/11/18 10:17:42;;;;;;;7.72;6.35;;;8.70;79.40;;;7.99;64.28;95994.22;4957029;28;20662;-87
2021/11/18 10:20:24;;;;;;;7.90;6.15;;;8.70;78.70;;;7.99;64.64;95994.22;4928712;28;20222;-88
2021/11/18 10:23:06;;;;;;;11.85;7.75;;;8.70;78.80;;;8.06;64.26;95992.66;4956858;28;20201;-87
2021/11/18 10:25:42;;;;;;;12.35;8.18;;;8.70;78.70;;;8.05;64.01;95998.06;4952251;29;20187;-88
2021/11/18 10:28:21;;;;;;;10.82;7.78;;;8.80;78.60;;;8.08;64.16;95993.34;4930979;28;20183;-88
2021/11/18 10:31:14;;;;;;;9.68;7.55;;;8.80;78.70;;;8.13;64.11;95995.50;4951661;29;20219;-88
2021/11/18 10:34:11;;;;;;;8.95;7.43;;;8.80;79.60;;;8.10;63.91;95990.59;4937088;29;20765;-88
2021/11/18 10:37:10;;;;;;;10.65;8.05;;;8.80;78.80;;;8.16;63.94;96001.25;4966550;28;20712;-88
2021/11/18 10:39:54;;;;;;;9.13;7.50;;;8.80;78.70;;;8.20;64.18;95999.16;4955539;28;20249;-87
2021/11/18 10:42:38;;;;;;;11.27;8.20;;;8.80;78.80;;;8.21;64.03;95992.97;4956497;28;20191;-88
2021/11/18 10:45:29;;;;;;;11.00;8.55;;;8.90;78.70;;;8.22;63.88;96005.06;4941188;28;20314;-88
2021/11/18 10:48:21;;;;;;;10.50;7.65;;;8.90;78.60;;;8.24;63.90;96012.75;4955887;28;20198;-89
2021/11/18 10:50:55;;;;;;;11.95;8.30;;;8.90;78.70;;;8.28;63.78;96014.09;4955299;28;20206;-88
2021/11/18 10:53:29;;;;;;;10.85;8.50;;;8.90;78.60;;;8.28;63.62;96014.91;4925048;28;20241;-89
2021/11/18 10:56:17;;;;;;;10.95;7.78;;;8.90;78.50;;;8.32;63.79;96015.44;4941303;28;20227;-89
2021/11/18 10:59:08;;;;;;;10.80;7.88;;;8.90;78.60;;;8.33;64.05;96015.28;4960177;28;20206;-87
2021/11/18 11:01:51;;;;;;;12.32;8.20;;;8.90;78.60;;;8.36;63.66;96010.72;4926138;29;20206;-89